sensor_id;sensor_type;location;lat;lon;timestamp;pressure;altitude;pressure_sealevel;temperature;humidity
72055;BME280;59936;51.490;5.436;2023-08-20T00:05:28;101931.66;;;17.49;81.51
72055;BME280;59936;51.490;5.436;2023-08-20T00:07:58;101930.81;;;17.48;80.08
72055;BME280;59936;51.490;5.436;2023-08-20T00:10:27;101923.53;;;17.49;79.64
72055;BME280;59936;51.490;5.436;2023-08-20T00:12:56;101929.16;;;17.47;79.46
72055;BME280;59936;51.490;5.436;2023-08-20T00:15:25;101930.34;;;17.44;79.45
72055;BME280;59936;51.490;5.436;2023-08-20T00:17:54;101926.13;;;17.42;79.44
72055;BME280;59936;51.490;5.436;2023-08-20T00:20:24;101928.00;;;17.41;79.50
72055;BME280;59936;51.490;5.436;2023-08-20T00:22:53;101928.00;;;17.41;79.50
72055;BME280;59936;51.490;5.436;2023-08-20T00:25:22;101915.88;;;17.37;79.66
72055;BME280;59936;51.490;5.436;2023-08-20T00:27:50;101919.63;;;17.36;79.58
72055;BME280;59936;51.490;5.436;2023-08-20T00:30:19;101924.38;;;17.34;79.58
72055;BME280;59936;51.490;5.436;2023-08-20T00:32:48;101924.91;;;17.30;79.78
72055;BME280;59936;51.490;5.436;2023-08-20T00:35:16;101924.91;;;17.30;79.78
72055;BME280;59936;51.490;5.436;2023-08-20T00:37:45;101925.28;;;17.27;79.79
72055;BME280;59936;51.490;5.436;2023-08-20T00:40:13;101933.78;;;17.24;79.88
72055;BME280;59936;51.490;5.436;2023-08-20T00:42:42;101938.53;;;17.22;80.00
72055;BME280;59936;51.490;5.436;2023-08-20T00:45:10;101936.66;;;17.22;80.01
72055;BME280;59936;51.490;5.436;2023-08-20T00:47:40;101947.50;;;17.22;80.06
72055;BME280;59936;51.490;5.436;2023-08-20T00:50:09;101950.03;;;17.24;80.09
72055;BME280;59936;51.490;5.436;2023-08-20T00:52:38;101955.09;;;17.27;80.08
72055;BME280;59936;51.490;5.436;2023-08-20T00:55:09;101958.28;;;17.30;80.12
72055;BME280;59936;51.490;5.436;2023-08-20T00:57:39;101963.34;;;17.33;80.39
72055;BME280;59936;51.490;5.436;2023-08-20T01:00:09;101963.22;;;17.41;80.46
72055;BME280;59936;51.490;5.436;2023-08-20T01:02:39;101967.75;;;17.49;80.46
72055;BME280;59936;51.490;5.436;2023-08-20T01:05:10;101966.16;;;17.55;80.44
72055;BME280;59936;51.490;5.436;2023-08-20T01:10:36;101984.13;;;17.56;81.66
72055;BME280;59936;51.490;5.436;2023-08-20T01:13:07;101986.91;;;17.62;81.14
72055;BME280;59936;51.490;5.436;2023-08-20T01:15:37;101993.94;;;17.71;81.24
72055;BME280;59936;51.490;5.436;2023-08-20T01:18:05;101995.19;;;17.84;80.94
72055;BME280;59936;51.490;5.436;2023-08-20T01:20:41;101994.03;;;17.93;80.76
72055;BME280;59936;51.490;5.436;2023-08-20T01:29:11;101991.72;;;18.19;80.53
72055;BME280;59936;51.490;5.436;2023-08-20T01:31:40;101991.00;;;18.25;80.88
72055;BME280;59936;51.490;5.436;2023-08-20T01:34:12;101983.28;;;18.29;80.89
72055;BME280;59936;51.490;5.436;2023-08-20T01:36:41;101982.16;;;18.38;80.45
72055;BME280;59936;51.490;5.436;2023-08-20T01:39:10;101984.31;;;18.42;80.17
72055;BME280;59936;51.490;5.436;2023-08-20T01:41:38;101991.94;;;18.54;80.28
72055;BME280;59936;51.490;5.436;2023-08-20T01:44:07;101991.94;;;18.54;80.28
72055;BME280;59936;51.490;5.436;2023-08-20T01:46:35;101989.03;;;18.55;80.19
72055;BME280;59936;51.490;5.436;2023-08-20T01:49:04;101987.44;;;18.61;80.09
72055;BME280;59936;51.490;5.436;2023-08-20T01:51:32;101989.41;;;18.67;80.03
72055;BME280;59936;51.490;5.436;2023-08-20T01:54:01;101986.53;;;18.75;79.90
72055;BME280;59936;51.490;5.436;2023-08-20T01:56:29;101989.72;;;18.78;79.74
72055;BME280;59936;51.490;5.436;2023-08-20T01:58:58;101997.28;;;18.83;79.76
72055;BME280;59936;51.490;5.436;2023-08-20T02:01:27;101995.69;;;18.89;79.65
72055;BME280;59936;51.490;5.436;2023-08-20T02:03:55;101999.72;;;18.93;79.58
72055;BME280;59936;51.490;5.436;2023-08-20T02:06:24;102008.00;;;19.06;79.41
72055;BME280;59936;51.490;5.436;2023-08-20T02:08:52;102008.00;;;19.06;79.41
72055;BME280;59936;51.490;5.436;2023-08-20T02:11:21;102006.13;;;19.06;79.22
72055;BME280;59936;51.490;5.436;2023-08-20T02:13:49;102003.41;;;19.06;79.18
72055;BME280;59936;51.490;5.436;2023-08-20T02:16:18;101998.38;;;19.03;79.22
72055;BME280;59936;51.490;5.436;2023-08-20T02:18:47;102003.81;;;19.03;79.28
72055;BME280;59936;51.490;5.436;2023-08-20T02:21:15;102014.59;;;18.97;79.68
72055;BME280;59936;51.490;5.436;2023-08-20T02:23:44;102014.59;;;18.97;79.68
72055;BME280;59936;51.490;5.436;2023-08-20T02:26:12;102024.72;;;18.88;79.63
72055;BME280;59936;51.490;5.436;2023-08-20T02:28:41;102024.72;;;18.88;79.63
72055;BME280;59936;51.490;5.436;2023-08-20T02:31:09;102013.22;;;18.86;79.36
72055;BME280;59936;51.490;5.436;2023-08-20T02:33:38;102014.25;;;18.85;79.30
72055;BME280;59936;51.490;5.436;2023-08-20T02:36:06;102020.69;;;18.84;79.31
72055;BME280;59936;51.490;5.436;2023-08-20T02:38:35;102013.41;;;18.85;79.27
72055;BME280;59936;51.490;5.436;2023-08-20T02:41:04;102013.41;;;18.85;79.17
72055;BME280;59936;51.490;5.436;2023-08-20T02:43:32;102002.47;;;18.78;79.15
72055;BME280;59936;51.490;5.436;2023-08-20T02:46:01;101999.22;;;18.68;79.23
72055;BME280;59936;51.490;5.436;2023-08-20T02:48:30;101998.03;;;18.56;79.40
72055;BME280;59936;51.490;5.436;2023-08-20T02:50:58;102004.03;;;18.51;79.44
72055;BME280;59936;51.490;5.436;2023-08-20T02:53:27;101998.34;;;18.46;79.47
72055;BME280;59936;51.490;5.436;2023-08-20T02:55:55;102000.59;;;18.42;79.36
72055;BME280;59936;51.490;5.436;2023-08-20T02:58:24;102000.59;;;18.42;79.36
72055;BME280;59936;51.490;5.436;2023-08-20T03:00:53;101999.19;;;18.32;79.48
72055;BME280;59936;51.490;5.436;2023-08-20T03:03:21;102008.38;;;18.16;79.59
72055;BME280;59936;51.490;5.436;2023-08-20T03:05:50;102008.38;;;18.16;79.59
72055;BME280;59936;51.490;5.436;2023-08-20T03:08:19;102001.75;;;18.04;79.57
72055;BME280;59936;51.490;5.436;2023-08-20T03:10:47;101995.72;;;17.94;79.63
72055;BME280;59936;51.490;5.436;2023-08-20T03:13:16;101996.00;;;17.84;79.82
72055;BME280;59936;51.490;5.436;2023-08-20T03:15:44;101994.31;;;17.68;79.71
72055;BME280;59936;51.490;5.436;2023-08-20T03:18:13;101994.31;;;17.68;79.71
72055;BME280;59936;51.490;5.436;2023-08-20T03:20:41;101994.28;;;17.54;79.88
72055;BME280;59936;51.490;5.436;2023-08-20T03:23:10;101994.28;;;17.54;79.88
72055;BME280;59936;51.490;5.436;2023-08-20T03:25:38;101981.00;;;17.44;80.15
72055;BME280;59936;51.490;5.436;2023-08-20T03:28:07;101989.03;;;17.37;80.16
72055;BME280;59936;51.490;5.436;2023-08-20T03:30:36;101990.78;;;17.30;80.21
72055;BME280;59936;51.490;5.436;2023-08-20T03:33:04;101994.22;;;17.24;80.24
72055;BME280;59936;51.490;5.436;2023-08-20T03:35:33;101998.69;;;17.17;80.49
72055;BME280;59936;51.490;5.436;2023-08-20T03:38:02;101998.94;;;17.07;80.76
72055;BME280;59936;51.490;5.436;2023-08-20T03:40:30;102000.13;;;17.05;80.61
72055;BME280;59936;51.490;5.436;2023-08-20T03:42:59;101987.13;;;17.00;80.56
72055;BME280;59936;51.490;5.436;2023-08-20T03:45:28;101998.97;;;16.99;80.47
72055;BME280;59936;51.490;5.436;2023-08-20T03:47:56;101996.84;;;16.95;80.48
72055;BME280;59936;51.490;5.436;2023-08-20T03:50:25;101997.50;;;16.89;80.66
72055;BME280;59936;51.490;5.436;2023-08-20T03:52:53;101998.06;;;16.84;80.71
72055;BME280;59936;51.490;5.436;2023-08-20T03:55:22;102001.09;;;16.81;80.82
72055;BME280;59936;51.490;5.436;2023-08-20T03:57:51;102001.09;;;16.81;80.82
72055;BME280;59936;51.490;5.436;2023-08-20T04:00:19;102006.41;;;16.74;80.76
72055;BME280;59936;51.490;5.436;2023-08-20T04:02:48;102004.06;;;16.71;80.76
72055;BME280;59936;51.490;5.436;2023-08-20T04:05:16;102007.31;;;16.67;80.87
72055;BME280;59936;51.490;5.436;2023-08-20T04:07:46;102010.53;;;16.62;80.96
72055;BME280;59936;51.490;5.436;2023-08-20T04:10:14;102009.03;;;16.60;80.99
72055;BME280;59936;51.490;5.436;2023-08-20T04:12:43;102015.16;;;16.54;81.10
72055;BME280;59936;51.490;5.436;2023-08-20T04:15:11;102017.38;;;16.50;81.23
72055;BME280;59936;51.490;5.436;2023-08-20T04:17:40;102025.84;;;16.47;81.24
72055;BME280;59936;51.490;5.436;2023-08-20T04:20:09;102032.09;;;16.48;81.19
72055;BME280;59936;51.490;5.436;2023-08-20T04:22:38;102029.56;;;16.46;81.60
72055;BME280;59936;51.490;5.436;2023-08-20T04:25:06;102029.56;;;16.46;81.60
72055;BME280;59936;51.490;5.436;2023-08-20T04:27:35;102016.22;;;16.45;81.33
72055;BME280;59936;51.490;5.436;2023-08-20T04:30:04;102022.66;;;16.44;81.22
72055;BME280;59936;51.490;5.436;2023-08-20T04:32:33;102030.75;;;16.44;81.17
72055;BME280;59936;51.490;5.436;2023-08-20T04:35:02;102037.19;;;16.42;81.29
72055;BME280;59936;51.490;5.436;2023-08-20T04:37:31;102037.19;;;16.42;81.29
72055;BME280;59936;51.490;5.436;2023-08-20T04:39:59;102033.31;;;16.37;81.30
72055;BME280;59936;51.490;5.436;2023-08-20T04:42:28;102037.22;;;16.34;81.49
72055;BME280;59936;51.490;5.436;2023-08-20T04:44:57;102038.59;;;16.30;81.79
72055;BME280;59936;51.490;5.436;2023-08-20T04:47:25;102040.63;;;16.28;82.00
72055;BME280;59936;51.490;5.436;2023-08-20T04:49:54;102035.41;;;16.27;81.91
72055;BME280;59936;51.490;5.436;2023-08-20T04:52:22;102027.28;;;16.27;81.91
72055;BME280;59936;51.490;5.436;2023-08-20T04:54:51;102034.72;;;16.25;82.45
72055;BME280;59936;51.490;5.436;2023-08-20T04:57:20;102033.19;;;16.30;82.10
72055;BME280;59936;51.490;5.436;2023-08-20T04:59:48;102033.19;;;16.30;82.10
72055;BME280;59936;51.490;5.436;2023-08-20T05:02:17;102034.88;;;16.31;82.06
72055;BME280;59936;51.490;5.436;2023-08-20T05:04:45;102042.31;;;16.29;82.40
72055;BME280;59936;51.490;5.436;2023-08-20T05:07:14;102044.84;;;16.31;82.44
72055;BME280;59936;51.490;5.436;2023-08-20T05:09:42;102040.94;;;16.33;82.26
72055;BME280;59936;51.490;5.436;2023-08-20T05:12:11;102044.13;;;16.37;82.14
72055;BME280;59936;51.490;5.436;2023-08-20T05:14:40;102042.59;;;16.42;82.05
72055;BME280;59936;51.490;5.436;2023-08-20T05:17:08;102042.06;;;16.47;81.95
72055;BME280;59936;51.490;5.436;2023-08-20T05:19:37;102041.91;;;16.49;81.98
72055;BME280;59936;51.490;5.436;2023-08-20T05:22:06;102043.25;;;16.53;81.94
72055;BME280;59936;51.490;5.436;2023-08-20T05:24:34;102041.66;;;16.58;81.95
72055;BME280;59936;51.490;5.436;2023-08-20T05:27:12;102045.53;;;16.64;81.90
72055;BME280;59936;51.490;5.436;2023-08-20T05:29:42;102045.00;;;16.68;81.83
72055;BME280;59936;51.490;5.436;2023-08-20T05:32:11;102047.19;;;16.73;81.86
72055;BME280;59936;51.490;5.436;2023-08-20T05:34:40;102058.69;;;16.75;82.19
72055;BME280;59936;51.490;5.436;2023-08-20T05:37:09;102051.69;;;16.81;82.25
72055;BME280;59936;51.490;5.436;2023-08-20T05:39:41;102055.56;;;16.86;82.14
72055;BME280;59936;51.490;5.436;2023-08-20T05:42:11;102054.88;;;16.92;82.08
72055;BME280;59936;51.490;5.436;2023-08-20T05:44:39;102058.56;;;16.99;82.08
72055;BME280;59936;51.490;5.436;2023-08-20T05:47:08;102058.50;;;17.07;82.07
72055;BME280;59936;51.490;5.436;2023-08-20T05:49:36;102057.81;;;17.14;81.99
72055;BME280;59936;51.490;5.436;2023-08-20T05:52:05;102059.59;;;17.21;81.98
72055;BME280;59936;51.490;5.436;2023-08-20T05:54:34;102060.06;;;17.25;82.18
72055;BME280;59936;51.490;5.436;2023-08-20T05:57:02;102050.69;;;17.35;82.12
72055;BME280;59936;51.490;5.436;2023-08-20T05:59:31;102062.59;;;17.49;81.87
72055;BME280;59936;51.490;5.436;2023-08-20T06:02:01;102050.84;;;17.57;81.89
72055;BME280;59936;51.490;5.436;2023-08-20T06:04:30;102056.66;;;17.68;81.87
72055;BME280;59936;51.490;5.436;2023-08-20T06:06:58;102055.19;;;17.81;81.71
72055;BME280;59936;51.490;5.436;2023-08-20T06:09:27;102061.84;;;17.93;81.81
72055;BME280;59936;51.490;5.436;2023-08-20T06:11:56;102057.50;;;18.21;81.50
72055;BME280;59936;51.490;5.436;2023-08-20T06:14:24;102057.50;;;18.21;81.50
72055;BME280;59936;51.490;5.436;2023-08-20T06:16:53;102051.31;;;18.27;81.13
72055;BME280;59936;51.490;5.436;2023-08-20T06:19:21;102050.84;;;18.38;80.87
72055;BME280;59936;51.490;5.436;2023-08-20T06:21:50;102056.84;;;18.49;80.63
72055;BME280;59936;51.490;5.436;2023-08-20T06:24:18;102055.03;;;18.56;80.48
72055;BME280;59936;51.490;5.436;2023-08-20T06:26:47;102064.94;;;18.63;80.48
72055;BME280;59936;51.490;5.436;2023-08-20T06:29:16;102063.69;;;18.80;80.42
72055;BME280;59936;51.490;5.436;2023-08-20T06:31:44;102056.25;;;19.04;79.68
72055;BME280;59936;51.490;5.436;2023-08-20T06:34:13;102049.06;;;19.18;79.22
72055;BME280;59936;51.490;5.436;2023-08-20T06:36:42;102057.22;;;19.39;78.69
72055;BME280;59936;51.490;5.436;2023-08-20T06:39:10;102069.25;;;19.79;77.55
72055;BME280;59936;51.490;5.436;2023-08-20T06:41:39;102069.25;;;19.79;77.55
72055;BME280;59936;51.490;5.436;2023-08-20T06:44:07;102054.97;;;19.92;77.21
72055;BME280;59936;51.490;5.436;2023-08-20T06:46:36;102060.41;;;20.26;76.42
72055;BME280;59936;51.490;5.436;2023-08-20T06:49:05;102066.16;;;20.44;75.68
72055;BME280;59936;51.490;5.436;2023-08-20T06:51:33;102066.16;;;20.44;75.68
72055;BME280;59936;51.490;5.436;2023-08-20T06:54:02;102060.59;;;20.59;74.91
72055;BME280;59936;51.490;5.436;2023-08-20T06:56:32;102060.06;;;20.77;73.89
72055;BME280;59936;51.490;5.436;2023-08-20T06:59:01;102069.97;;;20.98;74.16
72055;BME280;59936;51.490;5.436;2023-08-20T07:01:30;102056.19;;;21.19;73.59
72055;BME280;59936;51.490;5.436;2023-08-20T07:03:58;102063.97;;;21.48;74.52
72055;BME280;59936;51.490;5.436;2023-08-20T07:06:27;102053.72;;;21.83;74.13
72055;BME280;59936;51.490;5.436;2023-08-20T07:08:56;102062.25;;;22.20;74.35
72055;BME280;59936;51.490;5.436;2023-08-20T07:11:24;102065.75;;;22.53;73.23
72055;BME280;59936;51.490;5.436;2023-08-20T07:13:53;102069.25;;;22.74;72.31
72055;BME280;59936;51.490;5.436;2023-08-20T07:16:21;102065.94;;;23.03;74.74
72055;BME280;59936;51.490;5.436;2023-08-20T07:18:50;102069.50;;;23.42;74.00
72055;BME280;59936;51.490;5.436;2023-08-20T07:21:19;102072.16;;;23.73;73.34
72055;BME280;59936;51.490;5.436;2023-08-20T07:23:47;102074.06;;;23.98;72.37
72055;BME280;59936;51.490;5.436;2023-08-20T07:26:16;102060.34;;;24.22;69.90
72055;BME280;59936;51.490;5.436;2023-08-20T07:28:45;102066.66;;;24.60;70.15
72055;BME280;59936;51.490;5.436;2023-08-20T07:31:13;102081.09;;;25.33;67.73
72055;BME280;59936;51.490;5.436;2023-08-20T07:33:48;102081.09;;;25.33;67.73
72055;BME280;59936;51.490;5.436;2023-08-20T07:36:19;102066.22;;;25.87;65.05
72055;BME280;59936;51.490;5.436;2023-08-20T07:38:48;102065.25;;;26.40;64.26
72055;BME280;59936;51.490;5.436;2023-08-20T07:41:18;102067.25;;;26.97;63.46
72055;BME280;59936;51.490;5.436;2023-08-20T07:43:48;102068.44;;;27.01;62.18
72055;BME280;59936;51.490;5.436;2023-08-20T07:46:17;102065.34;;;27.42;61.46
72055;BME280;59936;51.490;5.436;2023-08-20T07:48:47;102061.94;;;28.24;58.67
72055;BME280;59936;51.490;5.436;2023-08-20T07:51:16;102073.50;;;28.59;57.15
72055;BME280;59936;51.490;5.436;2023-08-20T07:53:44;102075.97;;;28.83;55.44
72055;BME280;59936;51.490;5.436;2023-08-20T07:56:13;102074.13;;;29.15;55.30
72055;BME280;59936;51.490;5.436;2023-08-20T07:58:41;102075.47;;;29.40;53.04
72055;BME280;59936;51.490;5.436;2023-08-20T08:01:10;102085.72;;;30.60;50.57
72055;BME280;59936;51.490;5.436;2023-08-20T08:03:40;102085.72;;;30.60;50.57
72055;BME280;59936;51.490;5.436;2023-08-20T08:06:09;102076.22;;;30.46;51.57
72055;BME280;59936;51.490;5.436;2023-08-20T08:08:41;102075.56;;;30.86;50.61
72055;BME280;59936;51.490;5.436;2023-08-20T08:11:11;102074.53;;;31.28;49.39
72055;BME280;59936;51.490;5.436;2023-08-20T08:13:39;102081.78;;;31.59;48.09
72055;BME280;59936;51.490;5.436;2023-08-20T08:16:08;102088.16;;;31.90;47.99
72055;BME280;59936;51.490;5.436;2023-08-20T08:18:36;102077.88;;;32.11;46.31
72055;BME280;59936;51.490;5.436;2023-08-20T08:21:05;102084.50;;;31.95;47.29
72055;BME280;59936;51.490;5.436;2023-08-20T08:23:34;102090.66;;;31.82;47.83
72055;BME280;59936;51.490;5.436;2023-08-20T08:26:02;102084.50;;;32.20;47.20
72055;BME280;59936;51.490;5.436;2023-08-20T08:28:31;102092.06;;;31.64;48.32
72055;BME280;59936;51.490;5.436;2023-08-20T08:30:59;102087.03;;;32.07;47.40
72055;BME280;59936;51.490;5.436;2023-08-20T08:33:28;102093.97;;;32.04;45.99
72055;BME280;59936;51.490;5.436;2023-08-20T08:35:56;102086.78;;;31.57;46.63
72055;BME280;59936;51.490;5.436;2023-08-20T08:38:25;102095.91;;;31.73;45.47
72055;BME280;59936;51.490;5.436;2023-08-20T08:40:55;102091.19;;;31.79;45.44
72055;BME280;59936;51.490;5.436;2023-08-20T08:43:24;102091.47;;;31.77;44.13
72055;BME280;59936;51.490;5.436;2023-08-20T08:45:55;102096.16;;;31.92;44.95
72055;BME280;59936;51.490;5.436;2023-08-20T08:48:25;102092.56;;;32.07;43.77
72055;BME280;59936;51.490;5.436;2023-08-20T08:50:54;102095.91;;;32.04;44.23
72055;BME280;59936;51.490;5.436;2023-08-20T08:53:24;102088.03;;;32.41;44.10
72055;BME280;59936;51.490;5.436;2023-08-20T08:55:53;102090.81;;;32.36;44.13
72055;BME280;59936;51.490;5.436;2023-08-20T08:58:22;102097.56;;;31.99;44.72
72055;BME280;59936;51.490;5.436;2023-08-20T09:00:50;102089.84;;;31.46;45.48
72055;BME280;59936;51.490;5.436;2023-08-20T09:03:20;102094.78;;;31.94;43.18
72055;BME280;59936;51.490;5.436;2023-08-20T09:05:51;102092.13;;;32.64;42.50
72055;BME280;59936;51.490;5.436;2023-08-20T09:08:28;102092.38;;;32.73;41.32
72055;BME280;59936;51.490;5.436;2023-08-20T09:10:59;102099.50;;;32.09;41.15
72055;BME280;59936;51.490;5.436;2023-08-20T09:13:42;102099.78;;;32.03;42.03
72055;BME280;59936;51.490;5.436;2023-08-20T09:16:11;102103.91;;;32.20;39.72
72055;BME280;59936;51.490;5.436;2023-08-20T09:18:42;102098.44;;;32.80;41.56
72055;BME280;59936;51.490;5.436;2023-08-20T09:21:13;102098.66;;;32.88;40.61
72055;BME280;59936;51.490;5.436;2023-08-20T09:23:45;102091.81;;;32.71;40.33
72055;BME280;59936;51.490;5.436;2023-08-20T09:26:14;102091.97;;;32.94;41.38
72055;BME280;59936;51.490;5.436;2023-08-20T09:28:46;102097.38;;;32.71;41.47
72055;BME280;59936;51.490;5.436;2023-08-20T09:31:15;102102.53;;;31.37;41.07
72055;BME280;59936;51.490;5.436;2023-08-20T09:33:54;102101.59;;;30.85;41.74
72055;BME280;59936;51.490;5.436;2023-08-20T09:36:34;102093.63;;;31.04;40.55
72055;BME280;59936;51.490;5.436;2023-08-20T09:39:03;102101.44;;;31.53;41.27
72055;BME280;59936;51.490;5.436;2023-08-20T09:41:35;102103.13;;;31.54;41.97
72055;BME280;59936;51.490;5.436;2023-08-20T09:44:04;102102.56;;;31.77;41.72
72055;BME280;59936;51.490;5.436;2023-08-20T09:46:35;102102.56;;;31.82;41.21
72055;BME280;59936;51.490;5.436;2023-08-20T09:49:06;102099.38;;;32.50;39.25
72055;BME280;59936;51.490;5.436;2023-08-20T09:51:37;102096.97;;;32.23;39.57
72055;BME280;59936;51.490;5.436;2023-08-20T09:56:54;102093.44;;;33.26;35.27
72055;BME280;59936;51.490;5.436;2023-08-20T09:59:29;102098.00;;;33.12;39.06
72055;BME280;59936;51.490;5.436;2023-08-20T10:01:58;102098.50;;;32.64;39.16
72055;BME280;59936;51.490;5.436;2023-08-20T10:04:28;102095.53;;;32.51;39.00
72055;BME280;59936;51.490;5.436;2023-08-20T10:06:58;102106.44;;;32.02;40.02
72055;BME280;59936;51.490;5.436;2023-08-20T10:09:27;102097.53;;;31.18;41.67
72055;BME280;59936;51.490;5.436;2023-08-20T10:11:56;102096.47;;;31.85;42.65
72055;BME280;59936;51.490;5.436;2023-08-20T10:14:25;102097.06;;;32.77;40.21
72055;BME280;59936;51.490;5.436;2023-08-20T10:16:53;102085.66;;;33.28;38.07
72055;BME280;59936;51.490;5.436;2023-08-20T10:19:23;102105.13;;;32.74;38.73
72055;BME280;59936;51.490;5.436;2023-08-20T10:21:53;102101.41;;;32.29;37.46
72055;BME280;59936;51.490;5.436;2023-08-20T10:24:23;102102.56;;;31.62;39.24
72055;BME280;59936;51.490;5.436;2023-08-20T10:27:08;102097.22;;;32.31;38.62
72055;BME280;59936;51.490;5.436;2023-08-20T10:29:41;102102.47;;;32.38;36.97
72055;BME280;59936;51.490;5.436;2023-08-20T10:32:10;102102.19;;;32.40;38.31
72055;BME280;59936;51.490;5.436;2023-08-20T10:34:42;102106.09;;;32.33;38.92
72055;BME280;59936;51.490;5.436;2023-08-20T10:37:26;102100.28;;;32.30;39.05
72055;BME280;59936;51.490;5.436;2023-08-20T10:39:56;102100.25;;;32.35;36.18
72055;BME280;59936;51.490;5.436;2023-08-20T10:42:28;102101.91;;;32.41;40.27
72055;BME280;59936;51.490;5.436;2023-08-20T10:45:06;102099.41;;;32.55;38.86
72055;BME280;59936;51.490;5.436;2023-08-20T10:47:41;102100.16;;;32.65;35.11
72055;BME280;59936;51.490;5.436;2023-08-20T10:50:15;102095.03;;;32.18;37.20
72055;BME280;59936;51.490;5.436;2023-08-20T10:52:49;102100.91;;;31.96;37.53
72055;BME280;59936;51.490;5.436;2023-08-20T10:55:23;102110.06;;;31.97;37.41
72055;BME280;59936;51.490;5.436;2023-08-20T10:57:56;102092.84;;;31.70;37.94
72055;BME280;59936;51.490;5.436;2023-08-20T11:00:25;102095.94;;;31.63;38.29
72055;BME280;59936;51.490;5.436;2023-08-20T11:02:54;102097.84;;;31.98;38.16
72055;BME280;59936;51.490;5.436;2023-08-20T11:05:24;102099.75;;;32.23;37.07
72055;BME280;59936;51.490;5.436;2023-08-20T11:07:53;102104.22;;;31.88;38.22
72055;BME280;59936;51.490;5.436;2023-08-20T11:10:21;102095.88;;;31.93;37.85
72055;BME280;59936;51.490;5.436;2023-08-20T11:12:50;102095.34;;;31.86;38.03
72055;BME280;59936;51.490;5.436;2023-08-20T11:15:18;102096.47;;;32.06;37.56
72055;BME280;59936;51.490;5.436;2023-08-20T11:17:47;102091.97;;;32.30;37.04
72055;BME280;59936;51.490;5.436;2023-08-20T11:20:16;102092.72;;;32.46;36.70
72055;BME280;59936;51.490;5.436;2023-08-20T11:22:45;102088.09;;;32.21;36.92
72055;BME280;59936;51.490;5.436;2023-08-20T11:25:14;102104.19;;;31.93;37.12
72055;BME280;59936;51.490;5.436;2023-08-20T11:27:43;102097.25;;;31.30;37.53
72055;BME280;59936;51.490;5.436;2023-08-20T11:30:12;102089.22;;;31.23;37.15
72055;BME280;59936;51.490;5.436;2023-08-20T11:32:40;102086.88;;;30.75;36.74
72055;BME280;59936;51.490;5.436;2023-08-20T11:35:09;102087.63;;;30.55;37.84
72055;BME280;59936;51.490;5.436;2023-08-20T11:37:40;102086.69;;;31.02;37.37
72055;BME280;59936;51.490;5.436;2023-08-20T11:40:09;102086.69;;;31.02;37.37
72055;BME280;59936;51.490;5.436;2023-08-20T11:42:37;102078.69;;;31.30;36.61
72055;BME280;59936;51.490;5.436;2023-08-20T11:45:09;102082.31;;;31.36;35.49
72055;BME280;59936;51.490;5.436;2023-08-20T11:47:39;102081.09;;;30.86;36.59
72055;BME280;59936;51.490;5.436;2023-08-20T11:50:09;102082.84;;;31.18;35.90
72055;BME280;59936;51.490;5.436;2023-08-20T11:52:38;102071.50;;;31.40;36.70
72055;BME280;59936;51.490;5.436;2023-08-20T11:55:08;102073.22;;;31.61;36.59
72055;BME280;59936;51.490;5.436;2023-08-20T11:57:36;102072.66;;;31.69;36.54
72055;BME280;59936;51.490;5.436;2023-08-20T12:00:06;102063.47;;;31.74;36.87
72055;BME280;59936;51.490;5.436;2023-08-20T12:02:35;102058.78;;;31.49;36.34
72055;BME280;59936;51.490;5.436;2023-08-20T12:05:04;102059.28;;;31.05;36.45
72055;BME280;59936;51.490;5.436;2023-08-20T12:07:32;102046.56;;;31.09;36.30
72055;BME280;59936;51.490;5.436;2023-08-20T12:10:19;102044.88;;;31.08;35.65
72055;BME280;59936;51.490;5.436;2023-08-20T12:12:48;102039.50;;;30.66;35.94
72055;BME280;59936;51.490;5.436;2023-08-20T12:15:18;102044.91;;;30.30;37.24
72055;BME280;59936;51.490;5.436;2023-08-20T12:20:31;102044.50;;;30.07;37.51
72055;BME280;59936;51.490;5.436;2023-08-20T12:23:02;102041.78;;;30.17;38.67
72055;BME280;59936;51.490;5.436;2023-08-20T12:25:33;102037.72;;;30.29;38.60
72055;BME280;59936;51.490;5.436;2023-08-20T12:28:04;102034.63;;;30.26;38.58
72055;BME280;59936;51.490;5.436;2023-08-20T12:30:33;102032.56;;;30.01;38.41
72055;BME280;59936;51.490;5.436;2023-08-20T12:33:01;102039.94;;;29.53;38.39
72055;BME280;59936;51.490;5.436;2023-08-20T12:35:30;102040.41;;;29.40;38.67
72055;BME280;59936;51.490;5.436;2023-08-20T12:37:58;102029.78;;;29.59;39.25
72055;BME280;59936;51.490;5.436;2023-08-20T12:40:28;102034.19;;;29.92;38.78
72055;BME280;59936;51.490;5.436;2023-08-20T12:42:57;102028.63;;;29.55;38.19
72055;BME280;59936;51.490;5.436;2023-08-20T12:45:25;102040.25;;;29.52;38.55
72055;BME280;59936;51.490;5.436;2023-08-20T12:47:54;102040.22;;;29.20;38.55
72055;BME280;59936;51.490;5.436;2023-08-20T12:50:22;102044.22;;;29.07;38.57
72055;BME280;59936;51.490;5.436;2023-08-20T12:52:51;102035.84;;;28.97;39.06
72055;BME280;59936;51.490;5.436;2023-08-20T12:55:20;102042.94;;;28.88;39.04
72055;BME280;59936;51.490;5.436;2023-08-20T12:57:53;102032.69;;;28.88;39.03
72055;BME280;59936;51.490;5.436;2023-08-20T13:00:26;102031.31;;;28.86;38.99
72055;BME280;59936;51.490;5.436;2023-08-20T13:02:56;102029.84;;;28.78;39.96
72055;BME280;59936;51.490;5.436;2023-08-20T13:05:25;102039.69;;;28.96;39.66
72055;BME280;59936;51.490;5.436;2023-08-20T13:07:55;102035.06;;;29.02;39.94
72055;BME280;59936;51.490;5.436;2023-08-20T13:10:24;102048.09;;;29.06;39.63
72055;BME280;59936;51.490;5.436;2023-08-20T13:12:53;102046.13;;;29.28;39.57
72055;BME280;59936;51.490;5.436;2023-08-20T13:15:22;102047.94;;;29.50;39.17
72055;BME280;59936;51.490;5.436;2023-08-20T13:17:51;102042.44;;;29.50;39.37
72055;BME280;59936;51.490;5.436;2023-08-20T13:20:20;102040.75;;;29.49;39.53